Blairsville, Indiana
Current Conditions -  °F | °C
As of 3:36 AM on Monday 24 Nov 2014 (Local Time) from KEVV Reporting Station
Overcast Overcast  
Wind Chill: 17°   Ceiling: 3300
Heat Index: 17°   Visibility: 10mi
Dew Point: 13°   Wind: 16mph
Humidity: 78%   Direction: 180°S
Pressure: 29.26"   Gusts: 31mph
Location:  38.0787°N, 87.7717°W
Report Text: KEVV 240936Z AUTO 18014G27KT 10SM FEW021 BKN033 OVC050 17/13 A2926 RMK AO2 PK WND 19027/0930 LTG DSNT W-NE T01670128 $
Loading
Personal Weather Stations






























Interactive Weather Map New forecast layout! Learn more

10-Day Weather Forecast

Advertisements
Track Severe Weather on mobile